Home > Products > Valid Products > TAF

000
FTUS44 KLZK 130520
TAFHOT
TAF
KHOT 130520Z 1306/1406 34006KT P6SM SCT250
     FM130800 VRB03KT P6SM SCT100 BKN250
     FM131400 08007KT P6SM SCT250
     FM131800 12006KT P6SM SCT250=



000
FTUS44 KLZK 130520
TAFPBF
TAF
KPBF 130520Z 1306/1406 34006KT P6SM SCT250
     FM130800 06007KT P6SM SCT100 BKN250
     FM131400 08007KT P6SM SCT250
     FM131800 12006KT P6SM SCT250=



000
FTUS44 KLZK 130520
TAFHRO
TAF
KHRO 130520Z 1306/1406 35008KT P6SM BKN250
     FM131500 10009KT P6SM SCT100 SCT250
     FM132000 13008KT P6SM BKN250=



000
FTUS44 KLZK 130520
TAFLIT
TAF
KLIT 130520Z 1306/1406 24006KT P6SM SCT250
     FM130800 06003KT P6SM SCT100 BKN250
     FM131400 08007KT P6SM SCT250
     FM131800 12006KT P6SM SCT250=



000
FTUS44 KLZK 122320
TAFHRO
TAF
KHRO 122320Z 1300/1324 33009KT P6SM SCT250
     FM130600 35008KT P6SM BKN120 BKN250
     FM131500 10009KT P6SM SCT100 SCT250
     FM132000 13008KT P6SM BKN250=



000
FTUS44 KLZK 122320
TAFPBF
TAF
KPBF 122320Z 1300/1324 34006KT P6SM SCT250
     FM130800 06007KT P6SM SCT100 BKN250
     FM131400 08007KT P6SM SCT250
     FM131800 12006KT P6SM SCT250=



000
FTUS44 KLZK 122320
TAFHOT
TAF
KHOT 122320Z 1300/1324 34006KT P6SM SCT250
     FM130800 VRB03KT P6SM SCT100 BKN250
     FM131400 08007KT P6SM SCT250
     FM131800 12006KT P6SM SCT250=



000
FTUS44 KLZK 122320
TAFLIT
TAF
KLIT 122320Z 1300/1324 24006KT P6SM SCT250
     FM130800 06003KT P6SM SCT100 BKN250
     FM131400 08007KT P6SM SCT250
     FM131800 12006KT P6SM SCT250=



000
FTUS44 KLZK 121732
TAFHRO
TAF
KHRO 121732Z 1218/1318 32009G16KT P6SM SCT250
     FM130000 35008KT P6SM SCT100 BKN250
     FM131400 10009KT P6SM SCT100 SCT250=



000
FTUS44 KLZK 121732
TAFHOT
TAF
KHOT 121732Z 1218/1318 35008KT P6SM SCT250
     FM130000 05006KT P6SM BKN250
     FM131400 08007KT P6SM SCT250=



000
FTUS44 KLZK 121732
TAFPBF
TAF
KPBF 121732Z 1218/1318 35008KT P6SM SCT250
     FM130000 02009G16KT P6SM BKN250
     FM131400 05009G16KT P6SM SCT250=



000
FTUS44 KLZK 121732
TAFLIT
TAF
KLIT 121732Z 1218/1318 34008KT P6SM SCT250
     FM130000 02009G16KT P6SM BKN250
     FM131400 06009G16KT P6SM SCT250=



000
FTUS44 KLZK 121732
TAFLIT
TAF
KLIT 121732Z 1218/1318 34008KT P6SM SCT250
     FM130000 02009G16KT P6SM BKN250
     FM131400 06009G16KT P6SM SCT250=



000
FTUS44 KLZK 121732
TAFHOT
TAF
KHOT 121732Z 1218/1318 35008KT P6SM SCT250
     FM130000 05006KT P6SM BKN250
     FM131400 08007KT P6SM SCT250=



000
FTUS44 KLZK 121732
TAFPBF
TAF
KPBF 121732Z 1218/1318 35008KT P6SM SCT250
     FM130000 02009G16KT P6SM BKN250
     FM131400 05009G16KT P6SM SCT250=



000
FTUS44 KLZK 121732
TAFHRO
TAF
KHRO 121732Z 1218/1318 32009G16KT P6SM SCT250
     FM130000 35008KT P6SM SCT100 BKN250
     FM131400 10009KT P6SM SCT100 SCT250=



000
FTUS44 KLZK 121125
TAFHOT
TAF
KHOT 121125Z 1212/1312 VRB05KT P6SM SCT150
     FM121600 35008KT P6SM SCT250
     FM130000 VRB05KT P6SM SCT060=



000
FTUS44 KLZK 121125
TAFPBF
TAF
KPBF 121125Z 1212/1312 04007KT P6SM BKN250
     FM121600 01007KT P6SM FEW035 SCT250
     FM130300 03008KT P6SM SCT060 BKN250=



000
FTUS44 KLZK 121125
TAFLIT
TAF
KLIT 121125Z 1212/1312 06008KT P6SM BKN250
     FM121600 01007KT P6SM FEW035 SCT250
     FM130000 VRB06KT P6SM BKN060=



000
FTUS44 KLZK 121125
TAFHRO
TAF
KHRO 121125Z 1212/1312 VRB04KT P6SM SCT250
     FM121500 32010G15KT P6SM SCT025 BKN035
     FM130000 VRB06KT P6SM BKN035 OVC060=



000
FTUS44 KLZK 120520
TAFLIT
TAF
KLIT 120520Z 1206/1306 06008KT P6SM BKN250
     FM121600 01007KT P6SM FEW035 SCT250=



000
FTUS44 KLZK 120520
TAFHRO
TAF
KHRO 120520Z 1206/1306 VRB04KT P6SM SCT250
     FM121500 32010G15KT P6SM SCT025 BKN035=



000
FTUS44 KLZK 120520
TAFHRO
TAF
KHRO 120520Z 1206/1306 VRB04KT P6SM SCT250
     FM121500 32010G15KT P6SM SCT025 BKN035=



000
FTUS44 KLZK 120520
TAFPBF
TAF
KPBF 120520Z 1206/1306 04007KT P6SM BKN250
     FM121600 01007KT P6SM FEW035 SCT250=



000
FTUS44 KLZK 120520
TAFPBF
TAF
KPBF 120520Z 1206/1306 04007KT P6SM BKN250
     FM121600 01007KT P6SM FEW035 SCT250=



000
FTUS44 KLZK 120520
TAFHOT
TAF
KHOT 120520Z 1206/1306 VRB05KT P6SM SCT150
     FM121600 35008KT P6SM SCT250=



000
FTUS44 KLZK 120520
TAFLIT
TAF
KLIT 120520Z 1206/1306 06008KT P6SM BKN250
     FM121600 01007KT P6SM FEW035 SCT250=



000
FTUS44 KLZK 120520
TAFHOT
TAF
KHOT 120520Z 1206/1306 VRB05KT P6SM SCT150
     FM121600 35008KT P6SM SCT250=



000
FTUS44 KLZK 112320
TAFHOT
TAF
KHOT 112320Z 1200/1224 VRB06KT P6SM SCT250
     FM120600 VRB05KT P6SM SCT150
     FM121600 35008KT P6SM SCT250=



000
FTUS44 KLZK 112320
TAFLIT
TAF
KLIT 112320Z 1200/1224 06008KT P6SM BKN250
     FM121600 01007KT P6SM FEW035 SCT250=



000
FTUS44 KLZK 112320
TAFHRO
TAF
KHRO 112320Z 1200/1224 VRB04KT P6SM SCT250
     FM121500 32010G15KT P6SM SCT025 BKN035=



000
FTUS44 KLZK 112320
TAFLIT
TAF
KLIT 112320Z 1200/1224 06008KT P6SM BKN250
     FM121600 01007KT P6SM FEW035 SCT250=



000
FTUS44 KLZK 112320
TAFHOT
TAF
KHOT 112320Z 1200/1224 VRB06KT P6SM SCT250
     FM120600 VRB05KT P6SM SCT150
     FM121600 35008KT P6SM SCT250=



000
FTUS44 KLZK 112320
TAFPBF
TAF
KPBF 112320Z 1200/1224 04007KT P6SM BKN250
     FM121600 01007KT P6SM FEW035 SCT250=



000
FTUS44 KLZK 112320
TAFHRO
TAF
KHRO 112320Z 1200/1224 VRB04KT P6SM SCT250
     FM121500 32010G15KT P6SM SCT025 BKN035=



000
FTUS44 KLZK 112320
TAFPBF
TAF
KPBF 112320Z 1200/1224 04007KT P6SM BKN250
     FM121600 01007KT P6SM FEW035 SCT250=



000
FTUS44 KLZK 111727
TAFLIT
TAF
KLIT 111727Z 1118/1218 03010KT P6SM SCT250
     FM120000 04005KT P6SM SCT150=



000
FTUS44 KLZK 111727
TAFPBF
TAF
KPBF 111727Z 1118/1218 02010KT P6SM SKC
     FM120000 01005KT P6SM SCT200=



000
FTUS44 KLZK 111727
TAFHOT
TAF
KHOT 111727Z 1118/1218 06006KT P6SM SKC
     FM120300 09005KT P6SM SCT150=



000
FTUS44 KLZK 111727
TAFHRO
TAF
KHRO 111727Z 1118/1218 10007KT P6SM SKC
     FM120000 14004KT P6SM BKN150
     FM121600 31010G15KT P6SM SCT025=



000
FTUS44 KLZK 111727
TAFHOT
TAF
KHOT 111727Z 1118/1218 06006KT P6SM SKC
     FM120300 09005KT P6SM SCT150=



000
FTUS44 KLZK 111727
TAFHRO
TAF
KHRO 111727Z 1118/1218 10007KT P6SM SKC
     FM120000 14004KT P6SM BKN150
     FM121600 31010G15KT P6SM SCT025=



000
FTUS44 KLZK 111727
TAFLIT
TAF
KLIT 111727Z 1118/1218 03010KT P6SM SCT250
     FM120000 04005KT P6SM SCT150=



000
FTUS44 KLZK 111727
TAFPBF
TAF
KPBF 111727Z 1118/1218 02010KT P6SM SKC
     FM120000 01005KT P6SM SCT200=



000
FTUS44 KLZK 111120
TAFHRO
TAF
KHRO 111120Z 1112/1212 03007KT P6SM SCT250
     FM112100 11004KT P6SM BKN250
     FM120200 VRB04KT P6SM SCT250=



000
FTUS44 KLZK 111120
TAFHOT
TAF
KHOT 111120Z 1112/1212 VRB06KT P6SM SCT250
     FM111800 03008G15KT P6SM SCT025 SCT250
     FM120000 VRB04KT P6SM SCT250=



000
FTUS44 KLZK 111120
TAFPBF
TAF
KPBF 111120Z 1112/1212 VRB04KT P6SM SCT250
     FM111700 03008G15KT P6SM SCT025 SCT250
     FM120000 VRB04KT P6SM SCT250=



000
FTUS44 KLZK 111120
TAFLIT
TAF
KLIT 111120Z 1112/1212 VRB05KT P6SM SCT250
     FM111500 03008G15KT P6SM SCT025 SCT250
     FM120000 VRB05KT P6SM SCT250=



000
FTUS44 KLZK 110520
TAFLIT
TAF
KLIT 110520Z 1106/1206 VRB05KT P6SM SCT250
     FM111500 03008G15KT P6SM SCT025 BKN250=



000
FTUS44 KLZK 110520
TAFHOT
TAF
KHOT 110520Z 1106/1206 VRB06KT P6SM SCT250
     FM111800 03008G15KT P6SM SCT025 SCT250=



000
FTUS44 KLZK 110520
TAFHOT
TAF
KHOT 110520Z 1106/1206 VRB06KT P6SM SCT250
     FM111800 03008G15KT P6SM SCT025 SCT250=



000
FTUS44 KLZK 110520
TAFHRO
TAF
KHRO 110520Z 1106/1206 VRB06KT P6SM SKC
     FM111000 03007KT P6SM SCT250
     FM112200 11004KT P6SM BKN250=



000
FTUS44 KLZK 110520
TAFHRO
TAF
KHRO 110520Z 1106/1206 VRB06KT P6SM SKC
     FM111000 03007KT P6SM SCT250
     FM112200 11004KT P6SM BKN250=



000
FTUS44 KLZK 110520
TAFLIT
TAF
KLIT 110520Z 1106/1206 VRB05KT P6SM SCT250
     FM111500 03008G15KT P6SM SCT025 BKN250=



000
FTUS44 KLZK 110520
TAFPBF
TAF
KPBF 110520Z 1106/1206 VRB04KT P6SM SCT250
     FM111700 03008G15KT P6SM SCT025 BKN250=



000
FTUS44 KLZK 110520
TAFPBF
TAF
KPBF 110520Z 1106/1206 VRB04KT P6SM SCT250
     FM111700 03008G15KT P6SM SCT025 BKN250=



000
FTUS44 KLZK 102320
TAFPBF
TAF
KPBF 102320Z 1100/1124 22007KT P6SM SKC
     FM110300 VRB06KT P6SM SCT250
     FM111700 03008G15KT P6SM SCT025 BKN250=



000
FTUS44 KLZK 102320
TAFHRO
TAF
KHRO 102320Z 1100/1124 VRB06KT P6SM SKC
     FM111000 03007KT P6SM SCT250=



000
FTUS44 KLZK 102320
TAFLIT
TAF
KLIT 102320Z 1100/1124 21007KT P6SM SKC
     FM110200 VRB06KT P6SM SCT250
     FM111500 03008G15KT P6SM SCT025 BKN250=



000
FTUS44 KLZK 102320
TAFHRO
TAF
KHRO 102320Z 1100/1124 VRB06KT P6SM SKC
     FM111000 03007KT P6SM SCT250=



000
FTUS44 KLZK 102320
TAFPBF
TAF
KPBF 102320Z 1100/1124 22007KT P6SM SKC
     FM110300 VRB06KT P6SM SCT250
     FM111700 03008G15KT P6SM SCT025 BKN250=



000
FTUS44 KLZK 102320
TAFHOT
TAF
KHOT 102320Z 1100/1124 23007KT P6SM SKC
     FM110800 VRB06KT P6SM SCT250
     FM111800 03008G15KT P6SM SCT025 SCT250=



000
FTUS44 KLZK 102320
TAFLIT
TAF
KLIT 102320Z 1100/1124 21007KT P6SM SKC
     FM110200 VRB06KT P6SM SCT250
     FM111500 03008G15KT P6SM SCT025 BKN250=



000
FTUS44 KLZK 102320
TAFHOT
TAF
KHOT 102320Z 1100/1124 23007KT P6SM SKC
     FM110800 VRB06KT P6SM SCT250
     FM111800 03008G15KT P6SM SCT025 SCT250=



000
FTUS44 KLZK 102157 AAB
TAFLIT
TAF AMD
KLIT 102157Z 1022/1118 23008G16KT P6SM FEW090
     FM110000 VRB02KT P6SM SKC
     FM111500 02006KT P6SM SCT250=



000
FTUS44 KLZK 102146 AAA
TAFLIT
TAF AMD
KLIT 102146Z 1022/1118 25008G16KT P6SM FEW090
     FM110000 VRB02KT P6SM SKC
     FM111500 02006KT P6SM SCT250=



000
FTUS44 KLZK 102146 AAA
TAFLIT
TAF AMD
KLIT 102146Z 1022/1118 25008G16KT P6SM FEW090
     FM110000 VRB02KT P6SM SKC
     FM111500 02006KT P6SM SCT250=



000
FTUS44 KLZK 101730
TAFPBF
TAF
KPBF 101730Z 1018/1118 20006KT P6SM FEW100
     FM110000 VRB02KT P6SM SKC
     FM111600 02006KT P6SM SCT250=



000
FTUS44 KLZK 101730
TAFLIT
TAF
KLIT 101730Z 1018/1118 VRB05KT P6SM FEW090
     FM110000 VRB02KT P6SM SKC
     FM111500 02006KT P6SM SCT250=



000
FTUS44 KLZK 101730
TAFHOT
TAF
KHOT 101730Z 1018/1118 VRB05KT P6SM SKC
     FM111400 03006KT P6SM SCT250=



000
FTUS44 KLZK 101730
TAFHRO
TAF
KHRO 101730Z 1018/1118 14009KT P6SM SKC
     FM110000 23006KT P6SM SKC
     FM111000 02007KT P6SM SCT250=



000
FTUS44 KLZK 101120
TAFPBF
TAF
KPBF 101120Z 1012/1112 33007KT P6SM SCT060
     FM101800 22005KT P6SM SCT250
     FM110000 VRB04KT P6SM SKC=



000
FTUS44 KLZK 101120
TAFHRO
TAF
KHRO 101120Z 1012/1112 VRB05KT P6SM BKN060
     FM101700 22008KT P6SM SCT060
     FM110000 VRB06KT P6SM SKC=



000
FTUS44 KLZK 101120
TAFHOT
TAF
KHOT 101120Z 1012/1112 VRB05KT P6SM SCT060
     FM101800 21008KT P6SM SCT250
     FM110000 VRB04KT P6SM SKC=



000
FTUS44 KLZK 101120
TAFLIT
TAF
KLIT 101120Z 1012/1112 VRB05KT P6SM SCT060
     FM101800 22007KT P6SM SCT250
     FM110000 VRB04KT P6SM SKC=



    US Dept of Commerce
    National Oceanic and Atmospheric Administration
    National Weather Service
    1325 East West Highway
    Silver Spring, MD 20910
    Page Author: NWS Internet Services Team
Disclaimer
Information Quality
Credits
Glossary
Privacy Policy
Freedom of Information Act (FOIA)
About Us
Career Opportunities